Time;durP1;ratioP1;P1;durP2;ratioP2;P2;SDS_P1;SDS_P2;PMS_P1;PMS_P2;Temp;Humidity;BMP_temperature;BMP_pressure;BME280_temperature;BME280_humidity;BME280_pressure;Samples;Min_cycle;Max_cycle;Signal;HPM_P1;HPM_P2
2022/01/04 00:00:14;;;;;;;0.70;0.70;;;1.00;99.90;;;;;;5070545;28;20201;-75
2022/01/04 00:02:40;;;;;;;0.60;0.60;;;0.90;99.90;;;;;;5071188;28;20288;-74
2022/01/04 00:05:06;;;;;;;0.70;0.70;;;0.90;99.90;;;;;;5055648;28;20800;-75
2022/01/04 00:07:32;;;;;;;0.50;0.50;;;0.90;99.90;;;;;;5054488;28;20197;-74
2022/01/04 00:09:59;;;;;;;0.70;0.70;;;0.90;99.90;;;;;;5054540;28;20197;-75
2022/01/04 00:15:09;;;;;;;0.60;0.60;;;0.80;99.90;;;;;;5071411;28;20204;-75
2022/01/04 00:17:35;;;;;;;0.65;0.65;;;0.70;99.90;;;;;;5070963;28;20201;-73
2022/01/04 00:20:02;;;;;;;0.60;0.60;;;0.60;99.90;;;;;;5071333;28;20219;-74
2022/01/04 00:22:27;;;;;;;0.70;0.70;;;0.50;99.90;;;;;;5055248;28;20556;-74
2022/01/04 00:24:53;;;;;;;0.68;0.68;;;0.50;99.90;;;;;;5071217;28;20203;-75
2022/01/04 00:27:19;;;;;;;0.60;0.60;;;0.40;99.90;;;;;;5072016;28;20675;-76
2022/01/04 00:29:45;;;;;;;0.60;0.60;;;0.30;99.90;;;;;;5070833;28;20205;-74
2022/01/04 00:32:10;;;;;;;0.70;0.70;;;0.10;99.90;;;;;;5069152;28;20204;-75
2022/01/04 00:34:36;;;;;;;0.60;0.60;;;0.00;99.90;;;;;;5070655;28;20212;-74
2022/01/04 00:37:02;;;;;;;0.70;0.70;;;-0.10;99.90;;;;;;5070740;28;20586;-74
2022/01/04 00:39:28;;;;;;;0.73;0.73;;;-0.10;99.90;;;;;;5071479;28;20695;-74
2022/01/04 00:41:54;;;;;;;0.77;0.77;;;-0.10;99.90;;;;;;5071593;28;20188;-75
2022/01/04 00:44:20;;;;;;;0.73;0.73;;;-0.10;99.90;;;;;;5070638;28;20228;-74
2022/01/04 00:46:46;;;;;;;0.70;0.70;;;-0.20;99.90;;;;;;5071065;28;20219;-74
2022/01/04 00:49:11;;;;;;;0.75;0.75;;;-0.20;99.90;;;;;;5071682;28;20342;-75
2022/01/04 00:51:37;;;;;;;0.60;0.60;;;-0.20;99.90;;;;;;5071569;28;20236;-74
2022/01/04 00:54:04;;;;;;;0.60;0.60;;;-0.20;99.90;;;;;;5070535;28;20253;-75
2022/01/04 00:56:29;;;;;;;0.70;0.70;;;-0.20;99.90;;;;;;5070182;28;20627;-74
2022/01/04 00:58:55;;;;;;;0.60;0.60;;;-0.20;99.90;;;;;;5066033;28;20275;-75
2022/01/04 01:01:21;;;;;;;0.60;0.60;;;-0.20;99.90;;;;;;5053320;28;20224;-75
2022/01/04 01:03:47;;;;;;;0.80;0.80;;;-0.20;99.90;;;;;;5070538;28;20579;-74
2022/01/04 01:06:13;;;;;;;0.60;0.60;;;-0.20;99.90;;;;;;5071597;28;20234;-75
2022/01/04 01:08:39;;;;;;;0.70;0.70;;;-0.20;99.90;;;;;;5054435;28;20556;-75
2022/01/04 01:11:06;;;;;;;0.80;0.80;;;-0.30;99.90;;;;;;5071464;28;20201;-75
2022/01/04 01:13:32;;;;;;;0.60;0.60;;;-0.30;99.90;;;;;;5054600;28;20208;-75
2022/01/04 01:15:58;;;;;;;0.70;0.70;;;-0.40;99.90;;;;;;5070032;28;20257;-75
2022/01/04 01:18:23;;;;;;;0.60;0.60;;;-0.40;99.90;;;;;;5069165;28;20193;-74
2022/01/04 01:20:50;;;;;;;0.70;0.70;;;-0.40;99.90;;;;;;5070182;28;20224;-74
2022/01/04 01:23:16;;;;;;;0.70;0.70;;;-0.40;99.90;;;;;;5070214;28;20215;-74
2022/01/04 01:25:42;;;;;;;0.77;0.77;;;-0.40;99.90;;;;;;5053327;28;20639;-73
2022/01/04 01:28:08;;;;;;;0.68;0.68;;;-0.50;99.90;;;;;;5037650;28;20280;-76
2022/01/04 01:30:37;;;;;;;1.52;1.42;;;-0.40;99.90;;;;;;5054567;28;20205;-75
2022/01/04 01:33:03;;;;;;;0.70;0.70;;;-0.50;99.90;;;;;;5053995;28;20734;-75
2022/01/04 01:35:30;;;;;;;0.70;0.70;;;-0.50;99.90;;;;;;5066079;28;20702;-75
2022/01/04 01:37:58;;;;;;;0.70;0.70;;;-0.60;99.90;;;;;;5071362;28;20196;-75
2022/01/04 01:40:24;;;;;;;0.65;0.65;;;-0.70;99.90;;;;;;5070933;28;20635;-75
2022/01/04 01:42:49;;;;;;;0.65;0.65;;;-0.70;99.90;;;;;;5071436;28;20233;-75
2022/01/04 01:45:16;;;;;;;0.70;0.70;;;-0.70;99.90;;;;;;5070182;28;20288;-75
2022/01/04 01:47:45;;;;;;;0.70;0.70;;;-0.70;99.90;;;;;;5054206;28;20205;-74
2022/01/04 01:50:12;;;;;;;0.80;0.80;;;-0.70;99.90;;;;;;5053143;28;20617;-75
2022/01/04 01:52:39;;;;;;;0.70;0.70;;;-0.70;99.90;;;;;;5072162;28;20655;-75
2022/01/04 01:55:06;;;;;;;0.70;0.70;;;-0.70;99.90;;;;;;5074933;28;20219;-74
2022/01/04 01:57:32;;;;;;;0.77;0.77;;;-0.70;99.90;;;;;;5048185;28;20212;-74
2022/01/04 01:59:58;;;;;;;0.80;0.80;;;-0.80;99.90;;;;;;5050017;28;20197;-75
2022/01/04 02:02:24;;;;;;;0.80;0.80;;;-0.80;99.90;;;;;;5074444;28;20230;-75
2022/01/04 02:04:50;;;;;;;0.80;0.80;;;-0.70;99.90;;;;;;5073821;28;20231;-75
2022/01/04 02:07:16;;;;;;;0.73;0.73;;;-0.80;99.90;;;;;;5073712;28;20200;-74
2022/01/04 02:09:49;;;;;;;0.55;0.55;;;-0.80;99.90;;;;;;5056588;28;20670;-75
2022/01/04 02:12:19;;;;;;;0.70;0.70;;;-0.90;99.90;;;;;;5074879;28;20193;-75
2022/01/04 02:14:51;;;;;;;0.70;0.70;;;-0.90;99.90;;;;;;5073480;28;20290;-75
2022/01/04 02:17:17;;;;;;;0.70;0.70;;;-0.90;99.90;;;;;;5073265;28;20216;-76
2022/01/04 02:19:43;;;;;;;0.68;0.68;;;-0.90;99.90;;;;;;5073361;28;20603;-75
2022/01/04 02:22:08;;;;;;;0.70;0.70;;;-0.90;99.90;;;;;;5074460;28;20289;-75
2022/01/04 02:24:34;;;;;;;0.73;0.73;;;-0.90;99.90;;;;;;5072540;28;20201;-75
2022/01/04 02:27:00;;;;;;;0.73;0.73;;;-0.90;99.90;;;;;;5074636;28;20205;-75
2022/01/04 02:29:27;;;;;;;0.80;0.80;;;-0.90;99.90;;;;;;5057527;28;20772;-76
2022/01/04 02:31:53;;;;;;;0.70;0.70;;;-1.00;99.90;;;;;;5074322;28;20200;-75
2022/01/04 02:34:19;;;;;;;0.70;0.70;;;-1.00;99.90;;;;;;5074229;28;20687;-75
2022/01/04 02:36:45;;;;;;;0.70;0.70;;;-1.00;99.90;;;;;;5073075;28;20697;-75
2022/01/04 02:39:11;;;;;;;0.63;0.63;;;-1.00;99.90;;;;;;5057149;28;20221;-76
2022/01/04 02:41:37;;;;;;;0.80;0.80;;;-1.10;99.90;;;;;;5073943;28;20227;-74
2022/01/04 02:44:04;;;;;;;0.70;0.70;;;-1.10;99.90;;;;;;5073113;28;20204;-75
2022/01/04 02:46:29;;;;;;;0.70;0.70;;;-1.10;99.90;;;;;;5056878;28;20213;-75
2022/01/04 02:48:55;;;;;;;0.77;0.77;;;-1.10;99.90;;;;;;5054843;28;20266;-74
2022/01/04 02:51:23;;;;;;;0.70;0.70;;;-1.10;99.90;;;;;;5072626;28;20266;-76
2022/01/04 02:53:49;;;;;;;0.70;0.70;;;-1.20;99.90;;;;;;5073994;28;20405;-75
2022/01/04 02:56:15;;;;;;;0.80;0.80;;;-1.20;99.90;;;;;;5060422;28;20240;-75
2022/01/04 02:58:41;;;;;;;0.70;0.70;;;-1.10;99.90;;;;;;5072336;28;20298;-75
2022/01/04 03:01:07;;;;;;;0.80;0.80;;;-1.20;99.90;;;;;;5066931;28;20201;-75
2022/01/04 03:03:34;;;;;;;1.33;1.27;;;-1.20;99.90;;;;;;5062018;28;20588;-75
2022/01/04 03:06:00;;;;;;;0.70;0.70;;;-1.20;99.90;;;;;;5072248;28;20200;-75
2022/01/04 03:08:26;;;;;;;0.80;0.80;;;-1.30;99.90;;;;;;5073389;28;20205;-75
2022/01/04 03:10:51;;;;;;;0.75;0.75;;;-1.30;99.90;;;;;;5072480;28;20205;-75
2022/01/04 03:13:18;;;;;;;0.80;0.80;;;-1.30;99.90;;;;;;5055722;28;20205;-75
2022/01/04 03:15:44;;;;;;;0.80;0.80;;;-1.30;99.90;;;;;;5055046;28;20200;-75
2022/01/04 03:18:10;;;;;;;0.70;0.70;;;-1.40;99.90;;;;;;5072372;28;20537;-76
2022/01/04 03:20:36;;;;;;;0.70;0.70;;;-1.40;99.90;;;;;;5072145;28;20207;-75
2022/01/04 03:23:02;;;;;;;0.80;0.80;;;-1.50;99.90;;;;;;5056281;28;20592;-76
2022/01/04 03:25:27;;;;;;;0.90;0.90;;;-1.50;99.90;;;;;;5056760;28;20216;-75
2022/01/04 03:27:53;;;;;;;0.70;0.70;;;-1.60;99.90;;;;;;5055507;28;20197;-76
2022/01/04 03:30:19;;;;;;;0.80;0.80;;;-1.60;99.90;;;;;;5072363;28;20209;-75
2022/01/04 03:32:45;;;;;;;0.70;0.70;;;-1.60;99.90;;;;;;5071780;28;20680;-75
2022/01/04 03:35:11;;;;;;;0.70;0.70;;;-1.70;99.90;;;;;;5055830;28;20207;-75
2022/01/04 03:37:37;;;;;;;0.70;0.70;;;-1.70;99.90;;;;;;5071832;28;20200;-75
2022/01/04 03:40:05;;;;;;;0.70;0.70;;;-1.80;99.90;;;;;;5071877;28;20243;-75
2022/01/04 03:42:31;;;;;;;0.63;0.63;;;-1.90;99.90;;;;;;5072513;28;20548;-74
2022/01/04 03:44:56;;;;;;;0.70;0.70;;;-2.00;99.90;;;;;;5064694;28;20588;-74
2022/01/04 03:47:22;;;;;;;0.80;0.80;;;-2.10;99.90;;;;;;5058216;28;20208;-74
2022/01/04 03:49:48;;;;;;;0.70;0.70;;;-2.10;99.90;;;;;;5072925;28;20208;-74
2022/01/04 03:52:14;;;;;;;0.73;0.73;;;-2.10;99.90;;;;;;5071706;28;20212;-75
2022/01/04 03:54:39;;;;;;;0.70;0.70;;;-2.20;99.90;;;;;;5071486;28;20219;-74
2022/01/04 03:57:05;;;;;;;0.70;0.70;;;-2.20;99.90;;;;;;5066734;28;20633;-74
2022/01/04 03:59:31;;;;;;;0.90;0.90;;;-2.10;99.90;;;;;;5064586;28;20215;-75
2022/01/04 04:01:57;;;;;;;0.80;0.80;;;-2.10;99.90;;;;;;5068563;28;20205;-74
2022/01/04 04:04:22;;;;;;;0.90;0.90;;;-2.10;99.90;;;;;;5063960;28;20300;-74
2022/01/04 04:06:48;;;;;;;0.80;0.80;;;-2.20;99.90;;;;;;5072691;28;20223;-75
2022/01/04 04:09:14;;;;;;;0.80;0.80;;;-2.20;99.90;;;;;;5072378;28;20209;-75
2022/01/04 04:11:40;;;;;;;0.70;0.70;;;-2.30;99.90;;;;;;5054125;28;20209;-75
2022/01/04 04:14:05;;;;;;;0.80;0.80;;;-2.30;99.90;;;;;;5072322;28;20243;-73
2022/01/04 04:16:33;;;;;;;0.80;0.80;;;-2.40;99.90;;;;;;5057365;28;20257;-74
2022/01/04 04:18:58;;;;;;;0.80;0.80;;;-2.40;99.90;;;;;;5072290;28;20216;-75
2022/01/04 04:21:24;;;;;;;0.80;0.80;;;-2.50;99.90;;;;;;5059993;28;20201;-74
2022/01/04 04:23:50;;;;;;;0.70;0.70;;;-2.50;99.90;;;;;;5071172;28;20254;-73
2022/01/04 04:26:15;;;;;;;0.70;0.70;;;-2.50;99.90;;;;;;5054489;28;20213;-74
2022/01/04 04:28:41;;;;;;;0.85;0.85;;;-2.50;99.90;;;;;;5066683;28;20200;-75
2022/01/04 04:31:07;;;;;;;0.70;0.70;;;-2.40;99.90;;;;;;5054116;28;20326;-75
2022/01/04 04:33:33;;;;;;;0.77;0.77;;;-2.50;99.90;;;;;;5070759;28;20683;-74
2022/01/04 04:35:59;;;;;;;0.70;0.70;;;-2.50;99.90;;;;;;5070905;28;20205;-75
2022/01/04 04:38:24;;;;;;;0.90;0.90;;;-2.60;99.90;;;;;;5071714;28;20197;-75
2022/01/04 04:40:50;;;;;;;0.80;0.80;;;-2.60;99.90;;;;;;5071605;28;20212;-75
2022/01/04 04:43:16;;;;;;;0.80;0.80;;;-2.60;99.90;;;;;;5053947;28;20295;-75
2022/01/04 04:45:41;;;;;;;2.13;2.03;;;-2.60;99.90;;;;;;5054584;28;20658;-75
2022/01/04 04:48:07;;;;;;;0.70;0.70;;;-2.60;99.90;;;;;;5055159;28;20219;-75
2022/01/04 04:50:33;;;;;;;0.80;0.80;;;-2.50;99.90;;;;;;5071523;28;20204;-75
2022/01/04 04:52:59;;;;;;;0.75;0.75;;;-2.60;99.90;;;;;;5071036;28;20205;-75
2022/01/04 04:55:25;;;;;;;0.80;0.80;;;-2.60;99.90;;;;;;5070272;28;20318;-75
2022/01/04 04:57:51;;;;;;;0.80;0.80;;;-2.60;99.90;;;;;;5058318;28;20208;-75
2022/01/04 05:00:16;;;;;;;0.70;0.70;;;-2.70;99.90;;;;;;5068628;28;20219;-75
2022/01/04 05:02:42;;;;;;;0.70;0.70;;;-2.70;99.90;;;;;;5070208;28;20200;-74
2022/01/04 05:05:08;;;;;;;0.80;0.80;;;-2.70;99.90;;;;;;5071617;28;20197;-75
2022/01/04 05:07:35;;;;;;;0.80;0.80;;;-2.70;99.90;;;;;;5057525;28;20204;-75
2022/01/04 05:10:04;;;;;;;0.80;0.80;;;-2.70;99.90;;;;;;5071550;28;20215;-75
2022/01/04 05:12:29;;;;;;;0.85;0.85;;;-2.80;99.90;;;;;;5070127;28;20238;-75
2022/01/04 05:14:55;;;;;;;0.77;0.77;;;-2.80;99.90;;;;;;5071604;28;20680;-75
2022/01/04 05:17:21;;;;;;;0.70;0.70;;;-2.90;99.90;;;;;;5065190;28;20210;-75
2022/01/04 05:19:46;;;;;;;0.70;0.70;;;-2.90;99.90;;;;;;5062229;28;20279;-75
2022/01/04 05:22:12;;;;;;;0.80;0.80;;;-2.90;99.90;;;;;;5071477;28;20562;-75
2022/01/04 05:24:38;;;;;;;0.80;0.80;;;-3.00;99.90;;;;;;5070138;28;20212;-74
2022/01/04 05:27:04;;;;;;;0.70;0.70;;;-3.00;99.90;;;;;;5070427;28;20200;-74
2022/01/04 05:29:30;;;;;;;0.70;0.70;;;-3.00;99.90;;;;;;5058383;28;20203;-75
2022/01/04 05:31:56;;;;;;;0.80;0.80;;;-3.00;99.90;;;;;;5056320;28;20742;-75
2022/01/04 05:34:21;;;;;;;0.90;0.90;;;-3.00;99.90;;;;;;5056189;28;20211;-75
2022/01/04 05:36:47;;;;;;;0.80;0.80;;;-3.10;99.90;;;;;;5088413;28;20733;-76
2022/01/04 05:39:13;;;;;;;0.90;0.90;;;-3.10;99.90;;;;;;5074027;28;20235;-75
2022/01/04 05:41:38;;;;;;;0.80;0.80;;;-3.20;99.90;;;;;;5075162;28;20204;-75
2022/01/04 05:44:04;;;;;;;0.90;0.90;;;-3.30;99.90;;;;;;5075314;28;20205;-74
2022/01/04 05:46:30;;;;;;;0.90;0.90;;;-3.30;99.90;;;;;;5074246;28;20212;-75
2022/01/04 05:48:56;;;;;;;0.80;0.80;;;-3.30;99.90;;;;;;5074081;28;20227;-74
2022/01/04 05:51:21;;;;;;;0.60;0.60;;;-3.30;99.90;;;;;;5056820;28;20258;-75
2022/01/04 05:53:47;;;;;;;0.90;0.90;;;-3.30;99.90;;;;;;5073960;28;20208;-74
2022/01/04 05:56:13;;;;;;;0.90;0.90;;;-3.40;99.90;;;;;;5074786;28;20307;-74
2022/01/04 05:58:38;;;;;;;0.80;0.80;;;-3.40;99.90;;;;;;5061981;28;20284;-74
2022/01/04 06:01:04;;;;;;;0.90;0.90;;;-3.40;99.90;;;;;;5060852;28;20295;-74
2022/01/04 06:03:30;;;;;;;0.90;0.90;;;-3.40;99.90;;;;;;5073496;28;20253;-74
2022/01/04 06:05:56;;;;;;;0.80;0.80;;;-3.40;99.90;;;;;;5074751;28;20209;-74
2022/01/04 06:08:23;;;;;;;0.80;0.80;;;-3.40;99.90;;;;;;5056547;28;20622;-74
2022/01/04 06:10:52;;;;;;;0.90;0.90;;;-3.40;99.90;;;;;;5073641;28;20201;-74
2022/01/04 06:16:03;;;;;;;0.88;0.88;;;-3.40;99.90;;;;;;5072605;28;20623;-74
2022/01/04 06:18:28;;;;;;;0.82;0.82;;;-3.50;99.90;;;;;;5074269;28;20248;-75
2022/01/04 06:20:56;;;;;;;0.80;0.80;;;-3.50;99.90;;;;;;5074287;28;20663;-74
2022/01/04 06:23:21;;;;;;;0.82;0.82;;;-3.50;99.90;;;;;;5073204;28;20215;-74
2022/01/04 06:25:47;;;;;;;0.80;0.80;;;-3.50;99.90;;;;;;5074114;28;20205;-74
2022/01/04 06:28:13;;;;;;;1.85;1.75;;;-3.50;99.90;;;;;;5073290;28;20201;-74
2022/01/04 06:30:38;;;;;;;0.80;0.80;;;-3.60;99.90;;;;;;5073017;28;20259;-74
2022/01/04 06:33:04;;;;;;;0.80;0.80;;;-3.60;99.90;;;;;;5056258;28;20196;-75
2022/01/04 06:35:33;;;;;;;0.80;0.80;;;-3.70;99.90;;;;;;5055490;28;20209;-74
2022/01/04 06:37:59;;;;;;;0.80;0.80;;;-3.70;99.90;;;;;;5073335;28;20212;-74
2022/01/04 06:40:25;;;;;;;0.80;0.80;;;-3.70;99.90;;;;;;5074084;28;20225;-74
2022/01/04 06:42:50;;;;;;;0.80;0.80;;;-3.80;99.90;;;;;;5074535;28;20675;-74
2022/01/04 06:45:16;;;;;;;0.80;0.80;;;-3.80;99.90;;;;;;5072957;28;20209;-74
2022/01/04 06:47:42;;;;;;;0.80;0.80;;;-3.80;99.90;;;;;;5073841;28;20209;-75
2022/01/04 06:50:08;;;;;;;0.80;0.80;;;-3.80;99.90;;;;;;5055824;28;20235;-75
2022/01/04 06:52:34;;;;;;;0.80;0.80;;;-3.80;99.90;;;;;;5073852;28;20200;-75
2022/01/04 06:55:00;;;;;;;0.90;0.90;;;-3.80;99.90;;;;;;5073826;28;20193;-75
2022/01/04 06:57:25;;;;;;;1.77;1.65;;;-3.80;99.90;;;;;;5046830;28;20239;-74
2022/01/04 06:59:51;;;;;;;0.80;0.80;;;-3.80;99.90;;;;;;5066553;28;20203;-74
2022/01/04 07:02:17;;;;;;;0.90;0.90;;;-3.80;99.90;;;;;;5072344;28;20212;-74
2022/01/04 07:04:43;;;;;;;0.82;0.82;;;-3.90;99.90;;;;;;5072560;28;20567;-75
2022/01/04 07:07:09;;;;;;;0.88;0.88;;;-3.90;99.90;;;;;;5072629;28;20200;-74
2022/01/04 07:09:35;;;;;;;0.80;0.80;;;-3.90;99.90;;;;;;5073539;28;20329;-75
2022/01/04 07:12:01;;;;;;;0.75;0.75;;;-3.80;99.90;;;;;;5070746;28;20200;-73
2022/01/04 07:14:26;;;;;;;0.80;0.80;;;-3.90;99.90;;;;;;5073308;28;20338;-75
2022/01/04 07:16:52;;;;;;;0.80;0.80;;;-3.80;99.90;;;;;;5072302;28;20559;-75
2022/01/04 07:19:21;;;;;;;0.80;0.80;;;-3.70;99.90;;;;;;5072231;28;20192;-75
2022/01/04 07:21:46;;;;;;;0.80;0.80;;;-3.60;99.90;;;;;;5072188;28;20679;-75
2022/01/04 07:24:12;;;;;;;0.90;0.90;;;-3.70;99.90;;;;;;5073082;28;20199;-75
2022/01/04 07:26:38;;;;;;;0.90;0.90;;;-3.80;99.90;;;;;;5055959;28;20212;-75
2022/01/04 07:29:03;;;;;;;0.90;0.90;;;-3.80;99.90;;;;;;5055715;28;20201;-75
2022/01/04 07:31:29;;;;;;;0.77;0.77;;;-3.70;99.90;;;;;;5072968;28;20219;-75
2022/01/04 07:33:58;;;;;;;0.77;0.77;;;-3.70;99.90;;;;;;5073217;28;20200;-74
2022/01/04 07:36:25;;;;;;;0.75;0.75;;;-3.70;99.90;;;;;;5072673;28;20205;-75
2022/01/04 07:38:51;;;;;;;0.80;0.80;;;-3.70;99.90;;;;;;5054867;28;20220;-74
2022/01/04 07:41:17;;;;;;;0.90;0.90;;;-3.70;99.90;;;;;;5054956;28;20208;-74
2022/01/04 07:43:42;;;;;;;0.80;0.80;;;-3.70;99.90;;;;;;5071738;28;20204;-75
2022/01/04 07:46:08;;;;;;;0.80;0.80;;;-3.80;99.90;;;;;;5055934;28;20201;-76
2022/01/04 07:48:34;;;;;;;0.82;0.82;;;-3.80;99.90;;;;;;5055712;28;20218;-73
2022/01/04 07:50:59;;;;;;;0.90;0.90;;;-3.90;99.90;;;;;;5072159;28;20205;-74
2022/01/04 07:53:26;;;;;;;0.90;0.90;;;-3.80;99.90;;;;;;5071553;28;20255;-75
2022/01/04 07:55:52;;;;;;;0.95;0.95;;;-3.90;99.90;;;;;;5071535;28;20341;-75
2022/01/04 07:58:17;;;;;;;0.75;0.75;;;-3.90;99.90;;;;;;5053999;28;20291;-75
2022/01/04 08:00:43;;;;;;;0.70;0.70;;;-3.90;99.90;;;;;;5071281;28;20232;-74
2022/01/04 08:03:10;;;;;;;0.80;0.80;;;-3.80;99.90;;;;;;5053547;28;20197;-75
2022/01/04 08:05:37;;;;;;;0.82;0.82;;;-3.80;99.90;;;;;;5071336;28;20205;-74
2022/01/04 08:08:03;;;;;;;0.80;0.80;;;-3.70;99.90;;;;;;5070709;28;20746;-74
2022/01/04 08:10:28;;;;;;;0.95;0.95;;;-3.60;99.90;;;;;;5054371;28;20204;-74
2022/01/04 08:12:54;;;;;;;0.80;0.80;;;-3.60;99.90;;;;;;5055130;28;20190;-74
2022/01/04 08:15:20;;;;;;;0.70;0.70;;;-3.50;99.90;;;;;;5072399;28;20197;-74
2022/01/04 08:17:46;;;;;;;0.77;0.77;;;-3.50;99.90;;;;;;5053724;28;20297;-74
2022/01/04 08:20:11;;;;;;;0.70;0.70;;;-3.40;99.90;;;;;;5054731;28;20338;-74
2022/01/04 08:22:37;;;;;;;0.70;0.70;;;-3.10;99.90;;;;;;5070920;28;20205;-73
2022/01/04 08:25:06;;;;;;;0.70;0.70;;;-2.90;99.90;;;;;;5072243;28;20216;-73
2022/01/04 08:27:32;;;;;;;0.80;0.80;;;-2.80;99.90;;;;;;5071898;28;20201;-73
2022/01/04 08:29:58;;;;;;;0.70;0.70;;;-2.50;99.90;;;;;;5072193;28;20209;-73
2022/01/04 08:32:24;;;;;;;0.85;0.85;;;-2.20;99.90;;;;;;5052825;28;20232;-73
2022/01/04 08:34:50;;;;;;;0.70;0.70;;;-2.00;99.90;;;;;;5070911;28;20334;-73
2022/01/04 08:37:16;;;;;;;0.90;0.90;;;-1.90;99.90;;;;;;5070828;28;20736;-73
2022/01/04 08:39:42;;;;;;;2.15;1.98;;;-1.70;99.90;;;;;;5071549;28;20231;-74
2022/01/04 08:42:08;;;;;;;0.70;0.70;;;-1.60;99.90;;;;;;5071828;28;20572;-73
2022/01/04 08:44:39;;;;;;;0.70;0.70;;;-1.50;99.90;;;;;;5057456;28;20253;-73
2022/01/04 08:47:08;;;;;;;0.80;0.80;;;-1.30;99.90;;;;;;5071894;28;20199;-73
2022/01/04 08:49:34;;;;;;;0.73;0.73;;;-1.10;99.90;;;;;;5054493;28;20679;-73
2022/01/04 08:52:01;;;;;;;0.80;0.80;;;-1.20;99.90;;;;;;5071711;28;20204;-74
2022/01/04 08:54:26;;;;;;;0.70;0.70;;;-1.10;99.90;;;;;;5070266;28;20228;-73
2022/01/04 08:56:54;;;;;;;0.80;0.80;;;-1.00;99.90;;;;;;5071241;28;20216;-73
2022/01/04 08:59:20;;;;;;;0.70;0.70;;;-0.80;99.90;;;;;;5071412;28;20254;-73
2022/01/04 09:01:45;;;;;;;0.70;0.70;;;-0.60;99.90;;;;;;5071429;28;20200;-73
2022/01/04 09:04:11;;;;;;;0.80;0.80;;;-0.50;99.90;;;;;;5069789;28;20204;-74
2022/01/04 09:06:37;;;;;;;0.70;0.70;;;-0.50;99.90;;;;;;5071604;28;20211;-74
2022/01/04 09:09:03;;;;;;;0.70;0.70;;;-0.50;99.90;;;;;;5054071;28;20195;-74
2022/01/04 09:11:29;;;;;;;0.75;0.75;;;-0.40;99.90;;;;;;5053665;28;20207;-74
2022/01/04 09:14:10;;;;;;;0.68;0.68;;;-0.40;99.90;;;;;;5053803;28;20201;-74
2022/01/04 09:19:26;;;;;;;10.73;3.75;;;-0.20;99.90;;;;;;5055260;28;20204;-74
2022/01/04 09:21:53;;;;;;;0.70;0.70;;;0.00;99.90;;;;;;5052362;28;20752;-74
2022/01/04 09:24:20;;;;;;;0.70;0.70;;;0.10;99.90;;;;;;5070935;28;20189;-73
2022/01/04 09:26:47;;;;;;;25.52;2.75;;;0.10;99.90;;;;;;5071156;28;20258;-75
2022/01/04 09:29:14;;;;;;;0.60;0.60;;;0.30;99.90;;;;;;5070493;28;20204;-76
2022/01/04 09:31:40;;;;;;;0.60;0.60;;;0.30;99.90;;;;;;5070570;28;20243;-76
2022/01/04 09:34:05;;;;;;;13.85;1.80;;;0.30;99.90;;;;;;5070319;28;20240;-74
2022/01/04 09:36:40;;;;;;;0.70;0.70;;;0.30;99.90;;;;;;5071142;28;20221;-73
2022/01/04 09:39:13;;;;;;;1.85;1.23;;;0.40;99.90;;;;;;5071195;28;20295;-74
2022/01/04 09:41:40;;;;;;;0.70;0.70;;;0.40;99.90;;;;;;5068971;28;20205;-74
2022/01/04 09:44:05;;;;;;;0.70;0.70;;;0.40;99.90;;;;;;5071154;28;20575;-75
2022/01/04 09:46:32;;;;;;;0.60;0.60;;;0.50;99.90;;;;;;5071101;28;20205;-73
2022/01/04 09:48:58;;;;;;;0.60;0.60;;;0.50;99.90;;;;;;5055137;28;20346;-74
2022/01/04 09:51:25;;;;;;;0.70;0.70;;;0.50;99.90;;;;;;5056461;28;20292;-74
2022/01/04 09:53:51;;;;;;;0.60;0.60;;;0.50;99.90;;;;;;5068312;28;20204;-74
2022/01/04 09:56:17;;;;;;;0.70;0.70;;;0.60;99.90;;;;;;5054174;28;20219;-74
2022/01/04 09:58:43;;;;;;;0.70;0.70;;;0.70;99.90;;;;;;5067535;28;20197;-73
2022/01/04 10:01:23;;;;;;;0.70;0.70;;;0.70;99.90;;;;;;5069836;28;20287;-72
2022/01/04 10:03:48;;;;;;;0.65;0.65;;;0.70;99.90;;;;;;5069945;28;20200;-74
2022/01/04 10:06:15;;;;;;;0.60;0.60;;;0.80;99.90;;;;;;5061899;28;20319;-74
2022/01/04 10:09:00;;;;;;;0.68;0.68;;;0.80;99.90;;;;;;5069730;28;20232;-75
2022/01/04 10:11:47;;;;;;;0.60;0.60;;;0.80;99.90;;;;;;5069463;28;20216;-74
2022/01/04 10:14:30;;;;;;;0.70;0.70;;;0.90;99.90;;;;;;5072357;28;20254;-75
2022/01/04 10:17:00;;;;;;;0.70;0.70;;;1.00;99.90;;;;;;5073569;28;20204;-75
2022/01/04 10:19:30;;;;;;;0.70;0.70;;;1.00;99.90;;;;;;5074037;28;20280;-75
2022/01/04 10:22:12;;;;;;;0.88;0.88;;;1.00;99.90;;;;;;5074573;28;20671;-75
2022/01/04 10:24:38;;;;;;;0.70;0.70;;;1.10;99.90;;;;;;5074712;28;20252;-76
2022/01/04 10:27:27;;;;;;;0.57;0.57;;;1.10;99.90;;;;;;5057297;28;20251;-76
2022/01/04 10:30:15;;;;;;;0.60;0.60;;;1.10;99.90;;;;;;5039894;28;20202;-75
2022/01/04 10:32:43;;;;;;;0.60;0.60;;;1.10;99.90;;;;;;5074147;28;20291;-73
2022/01/04 10:35:09;;;;;;;0.75;0.75;;;1.20;99.90;;;;;;5073172;28;20232;-75
2022/01/04 10:37:37;;;;;;;0.70;0.70;;;1.10;99.90;;;;;;5072835;28;20310;-75
2022/01/04 10:40:08;;;;;;;0.60;0.60;;;1.10;99.90;;;;;;5073001;28;20255;-75
2022/01/04 10:42:34;;;;;;;0.60;0.60;;;1.20;99.90;;;;;;5057370;28;20254;-73
2022/01/04 10:45:19;;;;;;;0.50;0.50;;;1.20;99.90;;;;;;5074545;28;20204;-73
2022/01/04 10:47:44;;;;;;;0.70;0.70;;;1.20;99.90;;;;;;5039828;28;20201;-75
2022/01/04 10:50:10;;;;;;;0.70;0.70;;;1.20;99.90;;;;;;5074131;28;20208;-73
2022/01/04 10:52:36;;;;;;;0.68;0.68;;;1.20;99.90;;;;;;5074134;28;20205;-73
2022/01/04 10:55:14;;;;;;;0.60;0.60;;;1.30;99.90;;;;;;5073858;28;20660;-73
2022/01/04 10:57:40;;;;;;;0.70;0.70;;;1.30;99.90;;;;;;5046505;28;20224;-74
2022/01/04 11:00:15;;;;;;;0.55;0.55;;;1.40;99.90;;;;;;5039248;28;20626;-73
2022/01/04 11:02:41;;;;;;;0.70;0.70;;;1.40;99.90;;;;;;5073464;28;20220;-72
2022/01/04 11:05:18;;;;;;;0.60;0.60;;;1.50;99.90;;;;;;5055819;28;20204;-73
2022/01/04 11:08:04;;;;;;;0.60;0.60;;;1.50;99.90;;;;;;5055031;28;20295;-72
2022/01/04 11:10:35;;;;;;;5.45;3.35;;;1.50;99.90;;;;;;5055248;28;20257;-74
2022/01/04 11:13:02;;;;;;;0.80;0.80;;;1.40;99.90;;;;;;5073021;28;20659;-74
2022/01/04 11:15:33;;;;;;;0.70;0.70;;;1.40;99.90;;;;;;5072706;28;20724;-74
2022/01/04 11:17:59;;;;;;;0.70;0.70;;;1.40;99.90;;;;;;5073182;28;20192;-74
2022/01/04 11:20:25;;;;;;;0.63;0.63;;;1.40;99.90;;;;;;5073345;28;20667;-73
2022/01/04 11:22:53;;;;;;;0.60;0.60;;;1.40;99.90;;;;;;5073497;28;20204;-73
2022/01/04 11:25:21;;;;;;;0.70;0.70;;;1.40;99.90;;;;;;5072192;28;20197;-74
2022/01/04 11:27:48;;;;;;;0.60;0.60;;;1.50;99.90;;;;;;5055347;28;20220;-75
2022/01/04 11:30:21;;;;;;;0.68;0.68;;;1.50;99.90;;;;;;5055297;28;20223;-73
2022/01/04 11:32:51;;;;;;;1.33;1.23;;;1.50;99.90;;;;;;5056314;28;20201;-75
2022/01/04 11:35:21;;;;;;;0.50;0.50;;;1.60;99.90;;;;;;5054115;28;20228;-75
2022/01/04 11:37:55;;;;;;;0.98;0.98;;;1.60;99.90;;;;;;5055409;28;20676;-75
2022/01/04 11:40:31;;;;;;;0.60;0.60;;;1.60;99.90;;;;;;5071815;28;20706;-74
2022/01/04 11:42:57;;;;;;;1.20;1.15;;;1.60;99.90;;;;;;5073718;28;20592;-76
2022/01/04 11:45:48;;;;;;;0.60;0.60;;;1.60;99.90;;;;;;5071770;28;20203;-76
2022/01/04 11:48:28;;;;;;;0.70;0.70;;;1.70;99.90;;;;;;5054953;28;20205;-74
2022/01/04 11:51:06;;;;;;;0.65;0.65;;;1.60;99.90;;;;;;5072816;28;20228;-76
2022/01/04 11:53:33;;;;;;;0.70;0.70;;;1.60;99.90;;;;;;5072669;28;20205;-75
2022/01/04 11:56:06;;;;;;;0.60;0.60;;;1.70;99.90;;;;;;5072548;28;20733;-76
2022/01/04 11:58:52;;;;;;;0.85;0.85;;;1.70;99.90;;;;;;5069279;28;20201;-75
2022/01/04 12:01:27;;;;;;;0.70;0.70;;;1.70;99.90;;;;;;5071348;28;20684;-76
2022/01/04 12:03:53;;;;;;;0.60;0.60;;;1.70;99.90;;;;;;5072531;28;20275;-76
2022/01/04 12:06:21;;;;;;;0.65;0.65;;;1.80;99.90;;;;;;5054469;28;20303;-76
2022/01/04 12:08:52;;;;;;;0.65;0.65;;;1.80;99.90;;;;;;5054205;28;20291;-75
2022/01/04 12:11:27;;;;;;;0.50;0.50;;;1.80;99.90;;;;;;5071252;28;20237;-76
2022/01/04 12:13:58;;;;;;;0.60;0.60;;;1.80;99.90;;;;;;5072363;28;20200;-76
2022/01/04 12:16:42;;;;;;;0.60;0.60;;;1.80;99.90;;;;;;5071038;28;20684;-74
2022/01/04 12:19:10;;;;;;;0.77;0.77;;;1.80;99.90;;;;;;5072617;28;20204;-75
2022/01/04 12:21:41;;;;;;;0.55;0.55;;;1.80;99.90;;;;;;5072348;28;20228;-75
2022/01/04 12:24:09;;;;;;;0.60;0.60;;;1.80;99.90;;;;;;5071383;28;20673;-74
2022/01/04 12:26:36;;;;;;;0.70;0.70;;;1.80;99.90;;;;;;5071038;28;20295;-75
2022/01/04 12:29:01;;;;;;;0.50;0.50;;;1.80;99.90;;;;;;5071385;28;20200;-76
2022/01/04 12:31:33;;;;;;;0.75;0.75;;;1.80;99.90;;;;;;5054946;28;20211;-75
2022/01/04 12:34:04;;;;;;;1.67;1.58;;;1.80;99.90;;;;;;5055233;28;20197;-75
2022/01/04 12:36:39;;;;;;;0.60;0.60;;;1.70;99.90;;;;;;5070436;28;20223;-76
2022/01/04 12:39:07;;;;;;;0.60;0.60;;;1.70;99.90;;;;;;5046028;28;20225;-75
2022/01/04 12:41:37;;;;;;;0.70;0.70;;;1.70;99.90;;;;;;5030884;28;20325;-76
2022/01/04 12:44:04;;;;;;;0.60;0.60;;;1.70;99.90;;;;;;5031168;28;20194;-76
2022/01/04 12:46:34;;;;;;;0.60;0.60;;;1.70;99.90;;;;;;5030675;28;20253;-76
2022/01/04 12:49:03;;;;;;;13.45;2.15;;;1.70;99.90;;;;;;5029484;28;20566;-74
2022/01/04 12:51:48;;;;;;;0.60;0.60;;;1.70;99.90;;;;;;5030761;28;20209;-77
2022/01/04 12:54:21;;;;;;;0.63;0.63;;;1.70;99.90;;;;;;5030289;28;20743;-75
2022/01/04 12:56:59;;;;;;;0.65;0.65;;;1.70;99.90;;;;;;5028530;28;20199;-76
2022/01/04 12:59:25;;;;;;;0.70;0.70;;;1.70;99.90;;;;;;5019368;28;20206;-75